Terminal Aerodrome Forecast
Issued by NWS Quad Cities IA IL

Home | Current Version | Previous Version | Text Only | Print | Product List | Glossary On
Versions: 1 2 3 4 5 6 7 8 9 10 11 12 13 14 15 16 17 18 19 20
000
FTUS43 KDVN 251732
TAFMLI
TAF
KMLI 251732Z 2518/2618 24010KT P6SM SCT030 BKN060
     FM252000 27012G18KT P6SM SCT025 BKN035
     FM260100 28008KT P6SM BKN040
     FM261500 27013G20KT P6SM SCT040=

USA.gov is the U.S. government's official web portal to all federal, state and local government web resources and services.